LGTS/SKG METAR and TAF weather

Enter ICAO airport designator
Station Type Date Time Source
LGTS METAR 2018/12/17 16:50 UTC NOAA

LGTS 171650Z VRB03KT 9999 SCT025 07/01 Q1016 NOSIG


Station Type Date Time Source
LGTS Decoded METAR 2018/12/17 16:50 UTC NOAA

Thessaloniki Airport , Greece (LGTS) 40-31N 022-58E 4M
Dec 17, 2018 - 11:50 AM EST / 2018.12.17 1650 UTC
Wind: Variable at 3 MPH (3 KT):0
Visibility: greater than 7 mile(s):0
Sky conditions: partly cloudy
Temperature: 44 F (7 C)
Dew Point: 33 F (1 C)
Relative Humidity: 65%
Pressure (altimeter): 30.00 in. Hg (1016 hPa)
ob: LGTS 171650Z VRB03KT 9999 SCT025 07/01 Q1016 NOSIG
cycle: 17

Station Type Date Time Source
LGTS TAF 2018/12/17 12:12 UTC NOAA

TAF TAF LGTS 171100Z 1712/1812 35012KT 9999 SCT025
BECMG 1718/1720 FEW008 BKN025
TEMPO 1722/1812 7000 RA PROB30
TEMPO 1802/1810 4000 SNRA SCT008 BKN020
BECMG 1802/1804 35015G25KT


Example: see airport list